Time;durP1;ratioP1;P1;durP2;ratioP2;P2;SDS_P1;SDS_P2;PMS_P1;PMS_P2;Temp;Humidity;BMP_temperature;BMP_pressure;BME280_temperature;BME280_humidity;BME280_pressure;Samples;Min_cycle;Max_cycle;Signal;HPM_P1;HPM_P2
2022/03/22 00:00:19;;;;;;;56.15;20.73;;;;;;;;;;5096312;28;20060;-39
2022/03/22 00:02:44;;;;;;;56.58;21.10;;;;;;;;;;5096284;28;20112;-38
2022/03/22 00:05:09;;;;;;;66.28;23.45;;;;;;;;;;5096650;28;20038;-38
2022/03/22 00:07:35;;;;;;;58.50;22.80;;;;;;;;;;5096375;28;20012;-39
2022/03/22 00:10:00;;;;;;;58.53;21.55;;;;;;;;;;5096427;28;20016;-39
2022/03/22 00:12:26;;;;;;;56.92;22.40;;;;;;;;;;5095126;28;20020;-39
2022/03/22 00:14:51;;;;;;;64.95;23.92;;;;;;;;;;5094991;28;20417;-39
2022/03/22 00:17:16;;;;;;;62.90;24.13;;;;;;;;;;5096635;28;20016;-39
2022/03/22 00:19:42;;;;;;;54.40;23.65;;;;;;;;;;5094676;28;20078;-38
2022/03/22 00:22:07;;;;;;;70.28;25.48;;;;;;;;;;5096095;28;20408;-39
2022/03/22 00:24:33;;;;;;;72.55;24.45;;;;;;;;;;5095979;28;20061;-39
2022/03/22 00:26:58;;;;;;;65.80;24.48;;;;;;;;;;5094699;28;20074;-39
2022/03/22 00:29:23;;;;;;;66.53;23.85;;;;;;;;;;5094726;28;20057;-39
2022/03/22 00:31:49;;;;;;;76.47;26.30;;;;;;;;;;5094664;28;20043;-39
2022/03/22 00:34:14;;;;;;;66.22;24.45;;;;;;;;;;5095858;28;20065;-39
2022/03/22 00:36:40;;;;;;;59.67;24.13;;;;;;;;;;5095545;28;20359;-39
2022/03/22 00:39:05;;;;;;;68.28;24.92;;;;;;;;;;5095758;28;20028;-39
2022/03/22 00:41:31;;;;;;;66.20;24.02;;;;;;;;;;5077356;28;20026;-39
2022/03/22 00:43:56;;;;;;;64.00;23.67;;;;;;;;;;5095859;28;20107;-39
2022/03/22 00:46:21;;;;;;;62.22;23.67;;;;;;;;;;5095597;28;20016;-38
2022/03/22 00:48:47;;;;;;;68.38;24.67;;;;;;;;;;5095593;28;20016;-39
2022/03/22 00:51:13;;;;;;;60.58;23.95;;;;;;;;;;5095541;28;20054;-39
2022/03/22 00:53:39;;;;;;;58.35;23.60;;;;;;;;;;5095318;28;20391;-39
2022/03/22 00:56:05;;;;;;;62.42;23.60;;;;;;;;;;5095149;28;20024;-39
2022/03/22 00:58:30;;;;;;;56.25;21.33;;;;;;;;;;5095416;28;20028;-39
2022/03/22 01:00:56;;;;;;;57.30;23.02;;;;;;;;;;5095407;28;20434;-38
2022/03/22 01:03:22;;;;;;;54.88;22.70;;;;;;;;;;5095355;28;20043;-39
2022/03/22 01:05:50;;;;;;;57.72;22.27;;;;;;;;;;5095222;28;20055;-39
2022/03/22 01:08:16;;;;;;;56.00;22.63;;;;;;;;;;5095413;28;20012;-38
2022/03/22 01:10:42;;;;;;;51.95;21.40;;;;;;;;;;5076820;28;20020;-39
2022/03/22 01:13:08;;;;;;;55.28;21.35;;;;;;;;;;5095012;28;20016;-39
2022/03/22 01:15:34;;;;;;;52.42;20.73;;;;;;;;;;5095137;28;20020;-39
2022/03/22 01:18:03;;;;;;;60.65;23.77;;;;;;;;;;5094842;28;20465;-38
2022/03/22 01:20:31;;;;;;;48.72;21.02;;;;;;;;;;5094850;28;20027;-38
2022/03/22 01:22:57;;;;;;;52.25;21.95;;;;;;;;;;5076662;28;20024;-39
2022/03/22 01:25:27;;;;;;;56.22;23.05;;;;;;;;;;5094623;28;20027;-39
2022/03/22 01:27:53;;;;;;;62.85;22.92;;;;;;;;;;5076485;28;20024;-39
2022/03/22 01:30:19;;;;;;;56.75;20.85;;;;;;;;;;5094669;28;20022;-39
2022/03/22 01:32:45;;;;;;;52.08;21.33;;;;;;;;;;5094723;28;20343;-39
2022/03/22 01:35:11;;;;;;;45.97;19.50;;;;;;;;;;5082817;28;20454;-39
2022/03/22 01:37:37;;;;;;;46.78;20.42;;;;;;;;;;5094548;28;20012;-38
2022/03/22 01:40:03;;;;;;;52.08;19.98;;;;;;;;;;5092975;28;20122;-38
2022/03/22 01:42:29;;;;;;;47.55;21.70;;;;;;;;;;5094718;28;20058;-39
2022/03/22 01:44:54;;;;;;;54.60;20.98;;;;;;;;;;5093211;28;20514;-38
2022/03/22 01:47:20;;;;;;;53.80;21.55;;;;;;;;;;5092454;28;20019;-39
2022/03/22 01:49:47;;;;;;;55.13;20.52;;;;;;;;;;5094329;28;20394;-39
2022/03/22 01:52:17;;;;;;;48.08;20.58;;;;;;;;;;5094275;28;20020;-39
2022/03/22 01:54:43;;;;;;;53.70;21.55;;;;;;;;;;5092772;28;20024;-39
2022/03/22 01:57:10;;;;;;;48.38;20.60;;;;;;;;;;5093097;28;20023;-38
2022/03/22 01:59:35;;;;;;;47.92;21.95;;;;;;;;;;5094166;28;20455;-38
2022/03/22 02:07:31;;;;;;;49.00;20.35;;;;;;;;;;5094250;28;20027;-39
2022/03/22 02:09:56;;;;;;;47.63;20.83;;;;;;;;;;5094206;28;20012;-38
2022/03/22 02:12:21;;;;;;;58.65;21.42;;;;;;;;;;5094349;28;20462;-39
2022/03/22 02:14:47;;;;;;;42.45;18.48;;;;;;;;;;5093984;28;20062;-39
2022/03/22 02:17:12;;;;;;;43.78;18.38;;;;;;;;;;5092507;28;20462;-39
2022/03/22 02:19:40;;;;;;;41.38;19.75;;;;;;;;;;5092307;28;20546;-38
2022/03/22 02:22:08;;;;;;;42.85;17.90;;;;;;;;;;5093808;28;20439;-39
2022/03/22 02:24:34;;;;;;;44.60;18.88;;;;;;;;;;5092601;28;20024;-38
2022/03/22 02:26:59;;;;;;;42.03;18.58;;;;;;;;;;5092353;28;20454;-39
2022/03/22 02:29:25;;;;;;;41.95;18.45;;;;;;;;;;5093527;28;20031;-38
2022/03/22 02:31:52;;;;;;;47.35;19.75;;;;;;;;;;5092381;28;20021;-39
2022/03/22 02:34:18;;;;;;;51.22;18.40;;;;;;;;;;5093072;28;20019;-39
2022/03/22 02:36:44;;;;;;;44.40;18.98;;;;;;;;;;5093574;28;20028;-39
2022/03/22 02:39:10;;;;;;;47.72;19.05;;;;;;;;;;5093469;28;20051;-39
2022/03/22 02:41:35;;;;;;;39.60;18.67;;;;;;;;;;5093255;28;20438;-39
2022/03/22 02:44:01;;;;;;;51.83;21.65;;;;;;;;;;5075125;28;20024;-39
2022/03/22 02:46:26;;;;;;;50.45;21.85;;;;;;;;;;5093447;28;20069;-39
2022/03/22 02:48:51;;;;;;;49.55;22.80;;;;;;;;;;5074952;28;20016;-38
2022/03/22 02:51:17;;;;;;;50.22;21.30;;;;;;;;;;5093438;28;20020;-39
2022/03/22 02:53:43;;;;;;;45.70;18.25;;;;;;;;;;5093567;28;20026;-39
2022/03/22 02:56:09;;;;;;;45.60;17.90;;;;;;;;;;5093231;28;20107;-39
2022/03/22 02:58:34;;;;;;;48.72;18.27;;;;;;;;;;5074371;28;20020;-39
2022/03/22 03:01:00;;;;;;;45.00;18.30;;;;;;;;;;5074798;28;20016;-38
2022/03/22 03:03:26;;;;;;;42.38;17.58;;;;;;;;;;5093248;28;20020;-39
2022/03/22 03:05:51;;;;;;;46.55;18.00;;;;;;;;;;5093203;28;20091;-38
2022/03/22 03:08:17;;;;;;;43.40;17.95;;;;;;;;;;5093200;28;20012;-38
2022/03/22 03:10:42;;;;;;;38.80;17.90;;;;;;;;;;5075169;28;20443;-38
2022/03/22 03:13:08;;;;;;;46.15;19.25;;;;;;;;;;5075052;28;20058;-39
2022/03/22 03:15:33;;;;;;;46.10;20.30;;;;;;;;;;5093055;28;20034;-38
2022/03/22 03:17:59;;;;;;;43.55;18.52;;;;;;;;;;5074876;28;20020;-39
2022/03/22 03:20:25;;;;;;;48.03;19.90;;;;;;;;;;5074701;28;20252;-38
2022/03/22 03:22:50;;;;;;;46.58;17.63;;;;;;;;;;5093083;28;20012;-38
2022/03/22 03:25:16;;;;;;;39.03;17.65;;;;;;;;;;5092899;28;20088;-39
2022/03/22 03:27:41;;;;;;;50.83;20.10;;;;;;;;;;5074703;28;20024;-39
2022/03/22 03:30:07;;;;;;;43.88;18.63;;;;;;;;;;5092924;28;20012;-39
2022/03/22 03:32:32;;;;;;;36.92;17.58;;;;;;;;;;5092774;28;20532;-38
2022/03/22 03:34:58;;;;;;;42.65;17.70;;;;;;;;;;5092497;28;20078;-38
2022/03/22 03:37:24;;;;;;;38.22;17.35;;;;;;;;;;5074743;28;20367;-39
2022/03/22 03:39:50;;;;;;;45.33;18.52;;;;;;;;;;5092784;28;20374;-38
2022/03/22 03:42:15;;;;;;;51.53;19.25;;;;;;;;;;5092804;28;20016;-38
2022/03/22 03:47:24;;;;;;;61.97;19.50;;;;;;;;;;5092583;28;20027;-38
2022/03/22 03:49:51;;;;;;;43.72;15.82;;;;;;;;;;5074787;28;20016;-39
2022/03/22 03:52:26;;;;;;;38.35;16.27;;;;;;;;;;5092756;28;20043;-38
2022/03/22 03:54:52;;;;;;;35.00;14.32;;;;;;;;;;5092538;28;20022;-39
2022/03/22 03:57:18;;;;;;;37.92;15.60;;;;;;;;;;5092544;28;20047;-38
2022/03/22 03:59:43;;;;;;;42.55;16.23;;;;;;;;;;5074321;28;20450;-38
2022/03/22 04:02:10;;;;;;;39.03;16.10;;;;;;;;;;5092386;28;20077;-38
2022/03/22 04:04:36;;;;;;;46.90;17.25;;;;;;;;;;5092473;28;20089;-38
2022/03/22 04:07:04;;;;;;;39.90;16.17;;;;;;;;;;5092310;28;20455;-38
2022/03/22 04:09:30;;;;;;;42.00;17.42;;;;;;;;;;5092635;28;20512;-38
2022/03/22 04:11:55;;;;;;;39.78;16.73;;;;;;;;;;5095654;28;20020;-39
2022/03/22 04:14:22;;;;;;;38.58;15.77;;;;;;;;;;5096079;28;20443;-38
2022/03/22 04:16:49;;;;;;;37.33;15.32;;;;;;;;;;5095915;28;20012;-38
2022/03/22 04:19:14;;;;;;;37.50;14.48;;;;;;;;;;5096393;28;20114;-39
2022/03/22 04:21:39;;;;;;;31.00;14.40;;;;;;;;;;5096177;28;20459;-38
2022/03/22 04:24:06;;;;;;;46.95;17.65;;;;;;;;;;5095998;28;20016;-38
2022/03/22 04:26:32;;;;;;;42.72;16.13;;;;;;;;;;5095771;28;20358;-38
2022/03/22 04:34:25;;;;;;;42.35;14.55;;;;;;;;;;5095962;28;20481;-38
2022/03/22 04:36:57;;;;;;;41.45;15.20;;;;;;;;;;5077646;28;20044;-38
2022/03/22 04:39:23;;;;;;;32.50;14.05;;;;;;;;;;5077514;28;20111;-38
2022/03/22 04:41:49;;;;;;;38.15;14.27;;;;;;;;;;5095401;28;20055;-38
2022/03/22 04:44:16;;;;;;;29.30;14.23;;;;;;;;;;5095802;28;20073;-38
2022/03/22 04:46:41;;;;;;;27.00;14.15;;;;;;;;;;5077581;28;20024;-38
2022/03/22 04:49:06;;;;;;;36.55;14.77;;;;;;;;;;5095507;28;20069;-39
2022/03/22 04:57:00;;;;;;;31.38;13.30;;;;;;;;;;5095379;28;20026;-39
2022/03/22 04:59:26;;;;;;;34.60;13.77;;;;;;;;;;5077246;28;20062;-39
2022/03/22 05:01:51;;;;;;;32.05;14.05;;;;;;;;;;5077163;28;20415;-39
2022/03/22 05:04:16;;;;;;;32.13;13.32;;;;;;;;;;5077086;28;20020;-39
2022/03/22 05:06:42;;;;;;;28.02;13.55;;;;;;;;;;5077019;28;20012;-40
2022/03/22 05:09:07;;;;;;;29.63;13.52;;;;;;;;;;5094910;28;20019;-39
2022/03/22 05:11:33;;;;;;;34.15;13.57;;;;;;;;;;5095140;28;20095;-39
2022/03/22 05:13:59;;;;;;;29.38;13.75;;;;;;;;;;5095126;28;20048;-39
2022/03/22 05:16:25;;;;;;;30.27;13.93;;;;;;;;;;5076853;28;20251;-39
2022/03/22 05:18:50;;;;;;;28.70;13.48;;;;;;;;;;5094869;28;20502;-39
2022/03/22 05:21:17;;;;;;;28.85;13.20;;;;;;;;;;5076511;28;20031;-40
2022/03/22 05:23:42;;;;;;;35.05;13.80;;;;;;;;;;5075774;28;20028;-38
2022/03/22 05:26:07;;;;;;;30.52;12.77;;;;;;;;;;5094833;28;20015;-37
2022/03/22 05:28:33;;;;;;;29.25;13.25;;;;;;;;;;5094660;28;20070;-38
2022/03/22 05:30:58;;;;;;;28.38;12.85;;;;;;;;;;5076710;28;20012;-38
2022/03/22 05:33:24;;;;;;;30.75;14.05;;;;;;;;;;5094626;28;20044;-37
2022/03/22 05:35:49;;;;;;;25.50;13.88;;;;;;;;;;5085695;28;20131;-37
2022/03/22 05:38:15;;;;;;;29.67;12.77;;;;;;;;;;5093116;28;20027;-38
2022/03/22 05:40:40;;;;;;;35.65;13.63;;;;;;;;;;5094478;28;20119;-37
2022/03/22 05:43:06;;;;;;;27.40;13.68;;;;;;;;;;5093241;28;20439;-37
2022/03/22 05:45:31;;;;;;;30.25;13.88;;;;;;;;;;5093301;28;20441;-37
2022/03/22 05:47:59;;;;;;;30.13;13.57;;;;;;;;;;5094460;28;20016;-38
2022/03/22 05:50:25;;;;;;;32.28;12.95;;;;;;;;;;5094457;28;20027;-38
2022/03/22 05:52:50;;;;;;;31.25;14.18;;;;;;;;;;5094367;28;20019;-38
2022/03/22 05:55:15;;;;;;;31.02;15.60;;;;;;;;;;5094270;28;20038;-37
2022/03/22 05:57:41;;;;;;;26.90;12.95;;;;;;;;;;5094638;28;20019;-39
2022/03/22 06:00:07;;;;;;;42.58;14.35;;;;;;;;;;5094106;28;20374;-38
2022/03/22 06:02:35;;;;;;;29.67;14.32;;;;;;;;;;5093003;28;20016;-38
2022/03/22 06:05:00;;;;;;;29.88;14.32;;;;;;;;;;5092799;28;20050;-38
2022/03/22 06:07:26;;;;;;;32.00;15.32;;;;;;;;;;5092582;28;20019;-38
2022/03/22 06:09:51;;;;;;;31.13;14.55;;;;;;;;;;5094234;28;20070;-38
2022/03/22 06:12:18;;;;;;;25.25;14.15;;;;;;;;;;5094148;28;20024;-38
2022/03/22 06:14:43;;;;;;;29.80;14.60;;;;;;;;;;5093960;28;20012;-38
2022/03/22 06:17:09;;;;;;;32.70;16.95;;;;;;;;;;5092556;28;20343;-38
2022/03/22 06:19:34;;;;;;;29.98;15.93;;;;;;;;;;5093803;28;20127;-38
2022/03/22 06:22:00;;;;;;;24.95;14.18;;;;;;;;;;5093591;28;20042;-39
2022/03/22 06:24:26;;;;;;;30.70;15.10;;;;;;;;;;5093773;28;20020;-39
2022/03/22 06:26:51;;;;;;;29.25;15.88;;;;;;;;;;5092484;28;20137;-38
2022/03/22 06:29:16;;;;;;;27.13;14.60;;;;;;;;;;5093640;28;20024;-37
2022/03/22 06:31:41;;;;;;;24.02;14.45;;;;;;;;;;5093582;28;20087;-37
2022/03/22 06:34:07;;;;;;;27.42;15.05;;;;;;;;;;5093569;28;20417;-37
2022/03/22 06:36:32;;;;;;;29.02;14.82;;;;;;;;;;5093391;28;20055;-38
2022/03/22 06:38:57;;;;;;;25.42;14.23;;;;;;;;;;5093238;28;20063;-37
2022/03/22 06:41:23;;;;;;;30.83;15.68;;;;;;;;;;5075384;28;20020;-37
2022/03/22 06:43:48;;;;;;;29.77;15.25;;;;;;;;;;5075398;28;20028;-37
2022/03/22 06:46:13;;;;;;;28.23;15.93;;;;;;;;;;5075262;28;20016;-37
2022/03/22 06:48:39;;;;;;;32.58;16.65;;;;;;;;;;5075192;28;20021;-38
2022/03/22 06:51:04;;;;;;;35.33;17.65;;;;;;;;;;5093525;28;20016;-38
2022/03/22 06:53:29;;;;;;;32.97;17.23;;;;;;;;;;5074896;28;20374;-38
2022/03/22 06:55:55;;;;;;;28.27;16.33;;;;;;;;;;5075220;28;20008;-38
2022/03/22 06:58:22;;;;;;;32.60;17.10;;;;;;;;;;5093484;28;20081;-38
2022/03/22 07:00:51;;;;;;;39.40;18.40;;;;;;;;;;5075200;28;20030;-38
2022/03/22 07:03:17;;;;;;;33.50;16.38;;;;;;;;;;5088124;28;20055;-37
2022/03/22 07:05:45;;;;;;;33.25;17.52;;;;;;;;;;5088083;28;20055;-40
2022/03/22 07:08:11;;;;;;;32.17;17.90;;;;;;;;;;5073850;28;20356;-37
2022/03/22 07:10:36;;;;;;;33.47;17.23;;;;;;;;;;5072499;28;20081;-37
2022/03/22 07:13:05;;;;;;;36.72;17.70;;;;;;;;;;5089879;28;20029;-37
2022/03/22 07:15:35;;;;;;;36.22;17.05;;;;;;;;;;5075175;28;20104;-37
2022/03/22 07:18:02;;;;;;;35.88;16.48;;;;;;;;;;5079432;28;20554;-36
2022/03/22 07:20:28;;;;;;;37.60;17.98;;;;;;;;;;5072087;28;20047;-37
2022/03/22 07:25:37;;;;;;;30.80;16.20;;;;;;;;;;5091314;28;20035;-37
2022/03/22 07:28:02;;;;;;;32.25;18.27;;;;;;;;;;5070047;28;20456;-38
2022/03/22 07:30:27;;;;;;;30.98;16.48;;;;;;;;;;5070665;28;20020;-37
2022/03/22 07:32:55;;;;;;;28.27;17.08;;;;;;;;;;5091455;28;20012;-37
2022/03/22 07:35:20;;;;;;;35.80;16.92;;;;;;;;;;5076633;28;20048;-40
2022/03/22 07:37:46;;;;;;;35.20;17.63;;;;;;;;;;5085201;28;20389;-39
2022/03/22 07:40:12;;;;;;;28.48;16.20;;;;;;;;;;5089823;28;20443;-39
2022/03/22 07:42:37;;;;;;;32.97;18.63;;;;;;;;;;5091827;28;20051;-39
2022/03/22 07:45:04;;;;;;;31.38;16.95;;;;;;;;;;5091505;28;20387;-38
2022/03/22 07:47:30;;;;;;;30.58;17.00;;;;;;;;;;5094045;28;20378;-39
2022/03/22 07:55:24;;;;;;;27.67;16.95;;;;;;;;;;5094774;28;20047;-40
2022/03/22 07:57:49;;;;;;;30.63;17.35;;;;;;;;;;5094113;28;20016;-40
2022/03/22 08:00:17;;;;;;;26.35;16.25;;;;;;;;;;5093820;28;20039;-41
2022/03/22 08:02:58;;;;;;;31.27;15.88;;;;;;;;;;5092490;28;20485;-42
2022/03/22 08:05:24;;;;;;;29.67;17.17;;;;;;;;;;5091845;28;20032;-41
2022/03/22 08:07:50;;;;;;;26.33;16.02;;;;;;;;;;5093777;28;20428;-40
2022/03/22 08:10:16;;;;;;;27.00;17.05;;;;;;;;;;5095589;28;20024;-38
2022/03/22 08:12:41;;;;;;;26.33;15.35;;;;;;;;;;5095762;28;20024;-38
2022/03/22 08:15:08;;;;;;;27.42;14.35;;;;;;;;;;5093535;28;20022;-43
2022/03/22 08:17:34;;;;;;;30.45;16.10;;;;;;;;;;5093609;28;20028;-40
2022/03/22 08:19:59;;;;;;;28.65;15.45;;;;;;;;;;5089786;28;20039;-40
2022/03/22 08:22:25;;;;;;;28.00;16.10;;;;;;;;;;5091840;28;20051;-41
2022/03/22 08:24:52;;;;;;;31.70;16.35;;;;;;;;;;5094567;28;20458;-40
2022/03/22 08:27:18;;;;;;;29.42;16.30;;;;;;;;;;5093056;28;20073;-39
2022/03/22 08:29:43;;;;;;;32.67;15.68;;;;;;;;;;5092939;28;20508;-39
2022/03/22 08:32:09;;;;;;;28.50;16.17;;;;;;;;;;5092424;28;20017;-40
2022/03/22 08:34:34;;;;;;;25.80;15.63;;;;;;;;;;5094459;28;20027;-39
2022/03/22 08:37:00;;;;;;;23.23;14.38;;;;;;;;;;5074112;28;20099;-40
2022/03/22 08:39:25;;;;;;;28.50;15.18;;;;;;;;;;5077047;28;20044;-39
2022/03/22 08:41:52;;;;;;;37.42;15.77;;;;;;;;;;5071512;28;20487;-41
2022/03/22 08:44:18;;;;;;;25.25;14.52;;;;;;;;;;5072524;28;20036;-39
2022/03/22 08:46:43;;;;;;;24.77;15.18;;;;;;;;;;5072719;28;20028;-39
2022/03/22 08:49:08;;;;;;;24.50;14.98;;;;;;;;;;5074708;28;20451;-39
2022/03/22 08:51:34;;;;;;;26.08;15.25;;;;;;;;;;5071868;28;20019;-41
2022/03/22 08:53:59;;;;;;;21.10;14.05;;;;;;;;;;5074239;28;20027;-39
2022/03/22 08:56:24;;;;;;;26.45;14.18;;;;;;;;;;5072558;28;20131;-39
2022/03/22 08:58:53;;;;;;;22.85;13.10;;;;;;;;;;5071781;28;20082;-40
2022/03/22 09:01:22;;;;;;;20.55;14.20;;;;;;;;;;5071311;28;20055;-40
2022/03/22 09:06:07;;;;;;;26.92;12.90;;;;;;;;;;5072632;28;20481;-39
2022/03/22 09:06:32;;;;;;;23.88;12.73;;;;;;;;;;5070110;28;20036;-40
2022/03/22 09:08:57;;;;;;;23.50;12.05;;;;;;;;;;5065282;28;20035;-41
2022/03/22 09:11:23;;;;;;;20.17;12.70;;;;;;;;;;5069261;28;20025;-40
2022/03/22 09:13:48;;;;;;;23.50;12.80;;;;;;;;;;5072809;28;20040;-39
2022/03/22 09:16:15;;;;;;;19.52;12.98;;;;;;;;;;5069078;28;20024;-39
2022/03/22 09:18:40;;;;;;;26.27;13.00;;;;;;;;;;5071812;28;20029;-43
2022/03/22 09:21:06;;;;;;;26.13;13.38;;;;;;;;;;5071502;28;20483;-42
2022/03/22 09:23:31;;;;;;;21.25;12.85;;;;;;;;;;5068303;28;20036;-41
2022/03/22 09:25:57;;;;;;;22.10;12.27;;;;;;;;;;5073231;28;20012;-41
2022/03/22 09:28:22;;;;;;;21.98;12.32;;;;;;;;;;5073169;28;20021;-41
2022/03/22 09:30:48;;;;;;;26.27;12.55;;;;;;;;;;5073680;28;20035;-41
2022/03/22 09:33:13;;;;;;;21.70;13.68;;;;;;;;;;5072382;28;20025;-41
2022/03/22 09:35:38;;;;;;;19.55;12.40;;;;;;;;;;5083330;28;20105;-41
2022/03/22 09:38:04;;;;;;;21.65;13.20;;;;;;;;;;5092453;28;20020;-42
2022/03/22 09:40:30;;;;;;;20.20;12.20;;;;;;;;;;5091769;28;20051;-43
2022/03/22 09:42:55;;;;;;;21.77;12.25;;;;;;;;;;5092754;28;20107;-41
2022/03/22 09:45:26;;;;;;;20.38;12.68;;;;;;;;;;5092475;28;20020;-44
2022/03/22 09:47:51;;;;;;;30.05;13.88;;;;;;;;;;5075333;28;20020;-43
2022/03/22 09:50:17;;;;;;;20.95;12.70;;;;;;;;;;5072979;28;20437;-41
2022/03/22 09:52:43;;;;;;;20.83;12.60;;;;;;;;;;5072875;28;20357;-41
2022/03/22 09:55:10;;;;;;;21.10;12.80;;;;;;;;;;5088990;28;20054;-41
2022/03/22 09:57:36;;;;;;;22.30;13.48;;;;;;;;;;5092675;28;20393;-41
2022/03/22 10:00:01;;;;;;;25.92;14.23;;;;;;;;;;5091953;28;20127;-40
2022/03/22 10:02:27;;;;;;;20.88;12.48;;;;;;;;;;5093378;28;20121;-41
2022/03/22 10:04:53;;;;;;;25.40;13.05;;;;;;;;;;5093227;28;20024;-42
2022/03/22 10:07:19;;;;;;;23.45;13.48;;;;;;;;;;5088876;28;20061;-41
2022/03/22 10:09:50;;;;;;;20.70;13.88;;;;;;;;;;5092774;28;20164;-40
2022/03/22 10:12:24;;;;;;;25.95;13.57;;;;;;;;;;5072829;28;20035;-43
2022/03/22 10:14:49;;;;;;;18.48;12.10;;;;;;;;;;5092906;28;20417;-41
2022/03/22 10:17:17;;;;;;;18.17;12.70;;;;;;;;;;5092714;28;20028;-41
2022/03/22 10:19:47;;;;;;;17.73;12.32;;;;;;;;;;5093108;28;20339;-43
2022/03/22 10:22:13;;;;;;;18.35;13.10;;;;;;;;;;5092680;28;20031;-42
2022/03/22 10:24:42;;;;;;;19.13;12.70;;;;;;;;;;5090960;28;20347;-41
2022/03/22 10:27:18;;;;;;;22.05;12.55;;;;;;;;;;5092805;28;20028;-43
2022/03/22 10:29:44;;;;;;;18.48;11.25;;;;;;;;;;5092638;28;20086;-43
2022/03/22 10:32:09;;;;;;;19.65;12.43;;;;;;;;;;5092999;28;20490;-44
2022/03/22 10:34:34;;;;;;;20.57;13.13;;;;;;;;;;5090687;28;20051;-46
2022/03/22 10:37:00;;;;;;;18.23;11.18;;;;;;;;;;5069469;28;20281;-47
2022/03/22 10:39:25;;;;;;;37.85;12.00;;;;;;;;;;5072224;28;20123;-43
2022/03/22 10:41:50;;;;;;;12.82;9.75;;;;;;;;;;5072185;28;20401;-44
2022/03/22 10:44:20;;;;;;;18.63;11.50;;;;;;;;;;5071876;28;20047;-43
2022/03/22 10:46:46;;;;;;;21.92;12.00;;;;;;;;;;5066009;28;20285;-43
2022/03/22 10:49:13;;;;;;;17.33;11.32;;;;;;;;;;5068583;28;20016;-43
2022/03/22 10:51:43;;;;;;;21.55;11.65;;;;;;;;;;5072256;28;20059;-43
2022/03/22 10:54:09;;;;;;;18.83;11.13;;;;;;;;;;5071882;28;20107;-42
2022/03/22 10:56:35;;;;;;;15.75;10.80;;;;;;;;;;5056521;28;20048;-42
2022/03/22 10:59:01;;;;;;;18.90;10.25;;;;;;;;;;5064238;28;20510;-43
2022/03/22 11:01:27;;;;;;;17.70;10.90;;;;;;;;;;5072539;28;20371;-46
2022/03/22 11:03:56;;;;;;;19.23;10.50;;;;;;;;;;5054265;28;20029;-42
2022/03/22 11:06:21;;;;;;;18.63;11.77;;;;;;;;;;5053507;28;20491;-43
2022/03/22 11:08:46;;;;;;;16.67;11.15;;;;;;;;;;5065678;28;20025;-41
2022/03/22 11:11:12;;;;;;;16.95;10.45;;;;;;;;;;5070451;28;20017;-43
2022/03/22 11:13:38;;;;;;;14.63;10.05;;;;;;;;;;5054063;28;20028;-45
2022/03/22 11:16:04;;;;;;;17.95;10.48;;;;;;;;;;5071827;28;20486;-41
2022/03/22 11:18:30;;;;;;;13.38;9.57;;;;;;;;;;5069783;28;20017;-43
2022/03/22 11:20:59;;;;;;;12.40;8.60;;;;;;;;;;5071079;28;20040;-43
2022/03/22 11:23:29;;;;;;;26.88;9.73;;;;;;;;;;5070632;28;20037;-43
2022/03/22 11:25:55;;;;;;;49.55;10.68;;;;;;;;;;5073237;28;20033;-41
2022/03/22 11:28:22;;;;;;;21.45;10.10;;;;;;;;;;5072391;28;20021;-41
2022/03/22 11:30:48;;;;;;;40.03;21.23;;;;;;;;;;5071786;28;20032;-42
2022/03/22 11:35:59;;;;;;;11.38;8.10;;;;;;;;;;5083010;28;20178;-42
2022/03/22 11:38:54;;;;;;;13.43;9.05;;;;;;;;;;5078157;28;20032;-42
2022/03/22 11:44:11;;;;;;;13.25;8.43;;;;;;;;;;5096894;28;20378;-42
2022/03/22 11:46:36;;;;;;;15.45;7.88;;;;;;;;;;5093270;28;20008;-42
2022/03/22 11:49:28;;;;;;;18.45;8.90;;;;;;;;;;5092041;28;20039;-42
2022/03/22 11:51:58;;;;;;;14.48;8.98;;;;;;;;;;5084421;28;20477;-42
2022/03/22 11:54:27;;;;;;;18.38;8.70;;;;;;;;;;5068482;28;20020;-46
2022/03/22 11:56:55;;;;;;;17.88;8.48;;;;;;;;;;5091924;28;20024;-43
2022/03/22 11:59:21;;;;;;;16.83;8.80;;;;;;;;;;5093100;28;20043;-48
2022/03/22 12:01:56;;;;;;;12.55;8.48;;;;;;;;;;5093390;28;20027;-43
2022/03/22 12:04:31;;;;;;;11.68;8.00;;;;;;;;;;5077587;28;20020;-43
2022/03/22 12:06:56;;;;;;;16.27;9.00;;;;;;;;;;5075035;28;20095;-42
2022/03/22 12:09:24;;;;;;;12.93;9.20;;;;;;;;;;5093659;28;20522;-40
2022/03/22 12:11:50;;;;;;;13.93;8.55;;;;;;;;;;5090116;28;20129;-40
2022/03/22 12:14:23;;;;;;;24.50;9.60;;;;;;;;;;5075931;28;20118;-39
2022/03/22 12:16:52;;;;;;;15.63;8.35;;;;;;;;;;5076577;28;20012;-39
2022/03/22 12:19:24;;;;;;;15.77;8.18;;;;;;;;;;5094582;28;20027;-41
2022/03/22 12:21:51;;;;;;;21.25;9.40;;;;;;;;;;5066055;28;20036;-39
2022/03/22 12:24:16;;;;;;;18.67;8.88;;;;;;;;;;5093056;28;20037;-41
2022/03/22 12:26:42;;;;;;;26.80;8.53;;;;;;;;;;5091598;28;20059;-39
2022/03/22 12:29:07;;;;;;;20.33;8.57;;;;;;;;;;5092356;28;20259;-39
2022/03/22 12:31:32;;;;;;;14.40;8.27;;;;;;;;;;5089204;28;20019;-45
2022/03/22 12:33:58;;;;;;;24.80;8.43;;;;;;;;;;5090668;28;20261;-40
2022/03/22 12:36:25;;;;;;;16.20;8.50;;;;;;;;;;5094517;28;20300;-40
2022/03/22 12:38:50;;;;;;;13.23;7.75;;;;;;;;;;5093215;28;20016;-40
2022/03/22 12:41:16;;;;;;;16.57;8.43;;;;;;;;;;5095145;28;20461;-41
2022/03/22 12:43:45;;;;;;;14.32;8.23;;;;;;;;;;5094697;28;20233;-40
2022/03/22 12:46:11;;;;;;;13.52;7.78;;;;;;;;;;5074956;28;20020;-43
2022/03/22 12:48:36;;;;;;;15.43;7.72;;;;;;;;;;5095027;28;20026;-40
2022/03/22 12:51:03;;;;;;;11.47;6.77;;;;;;;;;;5094061;28;20083;-40
2022/03/22 12:53:28;;;;;;;15.32;7.32;;;;;;;;;;5092729;28;20723;-40
2022/03/22 12:55:54;;;;;;;18.30;7.18;;;;;;;;;;5075566;28;20022;-40
2022/03/22 12:58:28;;;;;;;10.82;6.55;;;;;;;;;;5091641;28;20016;-41
2022/03/22 13:00:53;;;;;;;13.70;6.72;;;;;;;;;;5075911;28;20064;-42
2022/03/22 13:03:19;;;;;;;15.02;6.88;;;;;;;;;;5073383;28;20047;-40
2022/03/22 13:05:51;;;;;;;11.93;6.57;;;;;;;;;;5074196;28;20139;-40
2022/03/22 13:08:20;;;;;;;11.90;6.90;;;;;;;;;;5090384;28;20020;-40
2022/03/22 13:15:01;;;;;;;13.25;6.63;;;;;;;;;;5086050;28;20524;-40
2022/03/22 13:16:22;;;;;;;12.00;6.05;;;;;;;;;;5087076;28;20024;-39
2022/03/22 13:18:48;;;;;;;10.55;5.93;;;;;;;;;;5074054;28;20110;-39
2022/03/22 13:21:14;;;;;;;10.68;6.22;;;;;;;;;;5090121;28;20036;-39
2022/03/22 13:23:39;;;;;;;9.45;6.50;;;;;;;;;;5093529;28;20520;-39
2022/03/22 13:26:13;;;;;;;15.23;7.30;;;;;;;;;;5092493;28;20020;-41
2022/03/22 13:28:39;;;;;;;14.13;6.45;;;;;;;;;;5091086;28;20343;-39
2022/03/22 13:31:04;;;;;;;14.73;6.70;;;;;;;;;;5093302;28;20417;-39
2022/03/22 13:33:33;;;;;;;11.20;6.78;;;;;;;;;;5090172;28;20024;-39
2022/03/22 13:36:00;;;;;;;14.07;6.28;;;;;;;;;;5092144;28;20044;-40
2022/03/22 13:38:26;;;;;;;15.02;6.65;;;;;;;;;;5091963;28;20406;-39
2022/03/22 13:40:58;;;;;;;26.83;7.22;;;;;;;;;;5091329;28;20035;-39
2022/03/22 13:43:25;;;;;;;20.67;8.00;;;;;;;;;;5088250;28;20048;-41
2022/03/22 13:45:54;;;;;;;13.60;6.32;;;;;;;;;;5086335;28;20099;-39
2022/03/22 13:48:20;;;;;;;23.80;11.23;;;;;;;;;;5091482;28;20031;-40
2022/03/22 13:50:47;;;;;;;26.17;9.30;;;;;;;;;;5089922;28;20154;-39
2022/03/22 13:53:13;;;;;;;24.08;12.05;;;;;;;;;;5093409;28;20095;-44
2022/03/22 13:55:39;;;;;;;135.40;102.70;;;;;;;;;;5089972;28;20099;-39
2022/03/22 13:58:10;;;;;;;345.95;285.30;;;;;;;;;;5089897;28;20086;-39
2022/03/22 14:00:35;;;;;;;18.85;8.02;;;;;;;;;;5092738;28;20409;-39
2022/03/22 14:03:00;;;;;;;52.83;13.38;;;;;;;;;;5090950;28;20020;-40
2022/03/22 14:05:26;;;;;;;12.02;6.30;;;;;;;;;;5088475;28;20294;-40
2022/03/22 14:07:51;;;;;;;10.32;6.07;;;;;;;;;;5069646;28;20028;-39
2022/03/22 14:10:17;;;;;;;10.98;6.15;;;;;;;;;;5089851;28;20024;-40
2022/03/22 14:12:42;;;;;;;11.05;6.60;;;;;;;;;;5089910;28;20028;-39
2022/03/22 14:15:07;;;;;;;10.93;6.68;;;;;;;;;;5092290;28;20016;-39
2022/03/22 14:17:33;;;;;;;16.65;6.35;;;;;;;;;;5089190;28;20154;-39
2022/03/22 14:19:58;;;;;;;13.77;6.65;;;;;;;;;;5090148;28;20490;-40
2022/03/22 14:22:23;;;;;;;11.55;6.45;;;;;;;;;;5090360;28;20008;-40
2022/03/22 14:24:50;;;;;;;15.63;6.13;;;;;;;;;;5092802;28;20095;-39
2022/03/22 14:27:16;;;;;;;13.60;6.30;;;;;;;;;;5084474;28;20469;-40
2022/03/22 14:29:41;;;;;;;11.23;5.80;;;;;;;;;;5088799;28;20030;-39
2022/03/22 14:32:06;;;;;;;12.18;7.07;;;;;;;;;;5088957;28;20016;-40
2022/03/22 14:37:16;;;;;;;9.43;5.97;;;;;;;;;;5088031;28;20390;-42
2022/03/22 14:39:41;;;;;;;11.13;6.43;;;;;;;;;;5090287;28;20028;-39
2022/03/22 14:42:10;;;;;;;14.40;6.82;;;;;;;;;;5091931;28;20048;-41
2022/03/22 14:44:35;;;;;;;20.02;7.40;;;;;;;;;;5092172;28;20486;-41
2022/03/22 14:47:00;;;;;;;14.30;6.07;;;;;;;;;;5089697;28;20012;-39
2022/03/22 14:49:27;;;;;;;11.30;6.13;;;;;;;;;;5089811;28;20065;-39
2022/03/22 14:54:36;;;;;;;15.15;6.00;;;;;;;;;;5089391;28;20094;-41